sensor_id;sensor_type;location;lat;lon;timestamp;noise_LAeq;noise_LA_min;noise_LA_max;noise_LA01;noise_LA95
74470;Laerm;62918;55.706;37.816;2024-03-07T00:00:14;49.60;43.40;54.80;;
74470;Laerm;62918;55.706;37.816;2024-03-07T00:00:48;45.94;42.49;51.61;;
74470;Laerm;62918;55.706;37.816;2024-03-07T00:01:18;56.52;46.76;63.20;;
74470;Laerm;62918;55.706;37.816;2024-03-07T00:01:50;56.56;53.79;62.42;;
74470;Laerm;62918;55.706;37.816;2024-03-07T00:02:21;60.12;53.44;70.89;;
74470;Laerm;62918;55.706;37.816;2024-03-07T00:02:51;62.61;49.28;72.84;;
74470;Laerm;62918;55.706;37.816;2024-03-07T00:03:22;54.75;46.07;61.33;;
74470;Laerm;62918;55.706;37.816;2024-03-07T00:03:54;52.80;44.79;58.99;;
74470;Laerm;62918;55.706;37.816;2024-03-07T00:04:26;57.05;45.33;66.20;;
74470;Laerm;62918;55.706;37.816;2024-03-07T00:04:57;55.42;48.40;63.26;;
74470;Laerm;62918;55.706;37.816;2024-03-07T00:05:27;49.47;42.93;54.75;;
74470;Laerm;62918;55.706;37.816;2024-03-07T00:05:58;49.21;43.92;54.87;;
74470;Laerm;62918;55.706;37.816;2024-03-07T00:06:28;49.11;43.62;54.75;;
74470;Laerm;62918;55.706;37.816;2024-03-07T00:06:59;44.62;41.98;47.48;;
74470;Laerm;62918;55.706;37.816;2024-03-07T00:07:30;48.10;41.44;56.75;;
74470;Laerm;62918;55.706;37.816;2024-03-07T00:08:01;45.70;41.57;51.57;;
74470;Laerm;62918;55.706;37.816;2024-03-07T00:08:31;48.01;41.32;55.37;;
74470;Laerm;62918;55.706;37.816;2024-03-07T00:09:02;46.30;42.13;54.79;;
74470;Laerm;62918;55.706;37.816;2024-03-07T00:09:33;45.37;42.26;48.55;;
74470;Laerm;62918;55.706;37.816;2024-03-07T00:10:05;44.54;41.58;48.91;;
74470;Laerm;62918;55.706;37.816;2024-03-07T00:10:37;45.07;41.51;49.53;;
74470;Laerm;62918;55.706;37.816;2024-03-07T00:11:07;50.09;44.64;54.84;;
74470;Laerm;62918;55.706;37.816;2024-03-07T00:11:39;52.72;45.80;62.31;;
74470;Laerm;62918;55.706;37.816;2024-03-07T00:12:11;51.46;46.12;58.92;;
74470;Laerm;62918;55.706;37.816;2024-03-07T00:12:42;54.72;47.05;59.65;;
74470;Laerm;62918;55.706;37.816;2024-03-07T00:13:13;49.96;43.50;55.07;;
74470;Laerm;62918;55.706;37.816;2024-03-07T00:13:44;49.42;43.24;56.12;;
74470;Laerm;62918;55.706;37.816;2024-03-07T00:14:14;48.77;43.30;59.90;;
74470;Laerm;62918;55.706;37.816;2024-03-07T00:14:45;49.85;44.87;57.61;;
74470;Laerm;62918;55.706;37.816;2024-03-07T00:15:16;54.11;47.45;60.72;;
74470;Laerm;62918;55.706;37.816;2024-03-07T00:15:47;51.36;44.86;58.10;;
74470;Laerm;62918;55.706;37.816;2024-03-07T00:16:18;54.22;45.89;61.58;;
74470;Laerm;62918;55.706;37.816;2024-03-07T00:16:48;55.35;46.35;63.47;;
74470;Laerm;62918;55.706;37.816;2024-03-07T00:17:19;51.95;43.62;58.73;;
74470;Laerm;62918;55.706;37.816;2024-03-07T00:17:50;54.83;44.63;64.94;;
74470;Laerm;62918;55.706;37.816;2024-03-07T00:18:20;44.57;41.33;51.18;;
74470;Laerm;62918;55.706;37.816;2024-03-07T00:18:51;53.79;42.41;61.65;;
74470;Laerm;62918;55.706;37.816;2024-03-07T00:19:22;56.68;42.88;64.24;;
74470;Laerm;62918;55.706;37.816;2024-03-07T00:19:57;46.45;42.09;51.49;;
74470;Laerm;62918;55.706;37.816;2024-03-07T00:20:27;44.58;41.81;48.96;;
74470;Laerm;62918;55.706;37.816;2024-03-07T00:20:58;49.51;41.43;58.73;;
74470;Laerm;62918;55.706;37.816;2024-03-07T00:21:28;48.23;42.38;54.62;;
74470;Laerm;62918;55.706;37.816;2024-03-07T00:21:59;53.65;42.34;64.13;;
74470;Laerm;62918;55.706;37.816;2024-03-07T00:22:30;56.33;44.41;62.23;;
74470;Laerm;62918;55.706;37.816;2024-03-07T00:23:01;48.27;43.60;56.77;;
74470;Laerm;62918;55.706;37.816;2024-03-07T00:23:33;51.17;42.59;56.29;;
74470;Laerm;62918;55.706;37.816;2024-03-07T00:24:04;46.18;42.84;50.46;;
74470;Laerm;62918;55.706;37.816;2024-03-07T00:24:35;48.41;43.03;53.02;;
74470;Laerm;62918;55.706;37.816;2024-03-07T00:25:07;57.79;48.88;61.67;;
74470;Laerm;62918;55.706;37.816;2024-03-07T00:25:39;47.90;43.35;54.31;;
74470;Laerm;62918;55.706;37.816;2024-03-07T00:26:09;46.25;43.30;49.65;;
74470;Laerm;62918;55.706;37.816;2024-03-07T00:26:40;45.90;42.97;49.98;;
74470;Laerm;62918;55.706;37.816;2024-03-07T00:27:11;46.32;42.60;52.59;;
74470;Laerm;62918;55.706;37.816;2024-03-07T00:27:44;46.32;42.18;50.52;;
74470;Laerm;62918;55.706;37.816;2024-03-07T00:28:16;51.05;42.39;58.01;;
74470;Laerm;62918;55.706;37.816;2024-03-07T00:28:47;46.96;42.40;51.97;;
74470;Laerm;62918;55.706;37.816;2024-03-07T00:29:18;48.11;43.25;53.06;;
74470;Laerm;62918;55.706;37.816;2024-03-07T00:29:49;55.73;45.48;63.04;;
74470;Laerm;62918;55.706;37.816;2024-03-07T00:30:27;47.61;44.45;51.58;;
74470;Laerm;62918;55.706;37.816;2024-03-07T00:30:59;54.65;45.34;62.52;;
74470;Laerm;62918;55.706;37.816;2024-03-07T00:31:30;49.75;42.01;57.81;;
74470;Laerm;62918;55.706;37.816;2024-03-07T00:32:01;45.96;42.68;51.51;;
74470;Laerm;62918;55.706;37.816;2024-03-07T00:32:31;47.29;43.20;52.05;;
74470;Laerm;62918;55.706;37.816;2024-03-07T00:33:05;48.21;43.52;52.55;;
74470;Laerm;62918;55.706;37.816;2024-03-07T00:33:36;45.96;42.91;49.31;;
74470;Laerm;62918;55.706;37.816;2024-03-07T00:34:07;54.48;43.81;62.25;;
74470;Laerm;62918;55.706;37.816;2024-03-07T00:34:37;53.40;44.87;61.88;;
74470;Laerm;62918;55.706;37.816;2024-03-07T00:35:10;47.41;43.99;54.34;;
74470;Laerm;62918;55.706;37.816;2024-03-07T00:35:40;51.72;46.13;56.43;;
74470;Laerm;62918;55.706;37.816;2024-03-07T00:36:11;50.37;44.80;57.21;;
74470;Laerm;62918;55.706;37.816;2024-03-07T00:36:42;51.07;44.95;56.69;;
74470;Laerm;62918;55.706;37.816;2024-03-07T00:37:13;57.12;45.44;64.47;;
74470;Laerm;62918;55.706;37.816;2024-03-07T00:37:44;55.62;46.26;62.25;;
74470;Laerm;62918;55.706;37.816;2024-03-07T00:38:15;55.04;45.46;63.41;;
74470;Laerm;62918;55.706;37.816;2024-03-07T00:38:46;63.54;50.59;69.53;;
74470;Laerm;62918;55.706;37.816;2024-03-07T00:39:17;53.05;45.75;62.25;;
74470;Laerm;62918;55.706;37.816;2024-03-07T00:39:48;49.10;44.74;56.28;;
74470;Laerm;62918;55.706;37.816;2024-03-07T00:40:19;49.49;45.18;54.64;;
74470;Laerm;62918;55.706;37.816;2024-03-07T00:40:49;52.01;46.09;57.64;;
74470;Laerm;62918;55.706;37.816;2024-03-07T00:41:20;49.35;44.46;54.33;;
74470;Laerm;62918;55.706;37.816;2024-03-07T00:41:51;48.71;44.91;53.22;;
74470;Laerm;62918;55.706;37.816;2024-03-07T00:42:21;49.40;44.50;54.25;;
74470;Laerm;62918;55.706;37.816;2024-03-07T00:42:52;48.32;44.47;53.26;;
74470;Laerm;62918;55.706;37.816;2024-03-07T00:43:23;51.87;45.49;55.67;;
74470;Laerm;62918;55.706;37.816;2024-03-07T00:43:54;53.70;44.77;61.16;;
74470;Laerm;62918;55.706;37.816;2024-03-07T00:44:24;51.11;45.12;58.87;;
74470;Laerm;62918;55.706;37.816;2024-03-07T00:44:55;50.45;45.75;58.93;;
74470;Laerm;62918;55.706;37.816;2024-03-07T00:45:26;51.73;45.98;56.69;;
74470;Laerm;62918;55.706;37.816;2024-03-07T00:45:57;49.83;44.54;57.34;;
74470;Laerm;62918;55.706;37.816;2024-03-07T00:46:27;55.21;48.80;61.01;;
74470;Laerm;62918;55.706;37.816;2024-03-07T00:46:58;56.71;50.55;62.57;;
74470;Laerm;62918;55.706;37.816;2024-03-07T00:47:29;55.76;47.37;63.41;;
74470;Laerm;62918;55.706;37.816;2024-03-07T00:47:59;51.03;47.29;57.89;;
74470;Laerm;62918;55.706;37.816;2024-03-07T00:48:30;51.39;47.30;64.08;;
74470;Laerm;62918;55.706;37.816;2024-03-07T00:49:01;57.72;48.82;62.31;;
74470;Laerm;62918;55.706;37.816;2024-03-07T00:49:32;50.30;43.66;57.15;;
74470;Laerm;62918;55.706;37.816;2024-03-07T00:50:02;48.94;44.19;55.11;;
74470;Laerm;62918;55.706;37.816;2024-03-07T00:50:33;53.91;45.85;60.90;;
74470;Laerm;62918;55.706;37.816;2024-03-07T00:51:04;55.50;43.57;65.22;;
74470;Laerm;62918;55.706;37.816;2024-03-07T00:51:34;47.18;42.98;51.56;;
74470;Laerm;62918;55.706;37.816;2024-03-07T00:52:05;47.74;43.25;52.36;;
74470;Laerm;62918;55.706;37.816;2024-03-07T00:52:36;50.91;44.31;56.83;;
74470;Laerm;62918;55.706;37.816;2024-03-07T00:53:07;47.79;42.69;53.62;;
74470;Laerm;62918;55.706;37.816;2024-03-07T00:53:37;48.09;43.69;54.21;;
74470;Laerm;62918;55.706;37.816;2024-03-07T00:54:08;51.40;44.67;59.23;;
74470;Laerm;62918;55.706;37.816;2024-03-07T00:54:39;56.05;44.01;61.88;;
74470;Laerm;62918;55.706;37.816;2024-03-07T00:55:09;51.18;44.14;59.03;;
74470;Laerm;62918;55.706;37.816;2024-03-07T00:55:40;48.08;43.11;53.33;;
74470;Laerm;62918;55.706;37.816;2024-03-07T00:56:10;50.47;43.44;61.03;;
74470;Laerm;62918;55.706;37.816;2024-03-07T00:56:41;55.85;46.65;62.95;;
74470;Laerm;62918;55.706;37.816;2024-03-07T00:57:11;54.06;47.10;58.85;;
74470;Laerm;62918;55.706;37.816;2024-03-07T00:57:42;56.16;47.53;61.37;;
74470;Laerm;62918;55.706;37.816;2024-03-07T00:58:12;62.01;58.22;65.36;;
74470;Laerm;62918;55.706;37.816;2024-03-07T00:58:43;57.99;46.98;62.94;;
74470;Laerm;62918;55.706;37.816;2024-03-07T00:59:13;50.29;46.15;56.60;;
74470;Laerm;62918;55.706;37.816;2024-03-07T00:59:44;49.82;45.60;63.44;;
74470;Laerm;62918;55.706;37.816;2024-03-07T01:00:16;49.58;46.10;55.90;;
74470;Laerm;62918;55.706;37.816;2024-03-07T01:00:50;58.21;47.36;66.66;;
74470;Laerm;62918;55.706;37.816;2024-03-07T01:01:20;53.24;46.33;59.80;;
74470;Laerm;62918;55.706;37.816;2024-03-07T01:01:51;50.92;46.01;54.76;;
74470;Laerm;62918;55.706;37.816;2024-03-07T01:02:22;52.70;45.53;64.85;;
74470;Laerm;62918;55.706;37.816;2024-03-07T01:02:52;57.95;47.07;64.70;;
74470;Laerm;62918;55.706;37.816;2024-03-07T01:03:23;50.27;44.92;56.15;;
74470;Laerm;62918;55.706;37.816;2024-03-07T01:03:54;53.70;46.70;58.09;;
74470;Laerm;62918;55.706;37.816;2024-03-07T01:04:25;54.11;45.87;62.37;;
74470;Laerm;62918;55.706;37.816;2024-03-07T01:05:01;49.30;45.48;53.22;;
74470;Laerm;62918;55.706;37.816;2024-03-07T01:05:32;50.29;44.98;59.63;;
74470;Laerm;62918;55.706;37.816;2024-03-07T01:06:03;59.00;55.44;64.89;;
74470;Laerm;62918;55.706;37.816;2024-03-07T01:06:34;57.82;55.35;59.99;;
74470;Laerm;62918;55.706;37.816;2024-03-07T01:07:06;69.86;55.44;79.29;;
74470;Laerm;62918;55.706;37.816;2024-03-07T01:07:36;63.24;54.10;71.09;;
74470;Laerm;62918;55.706;37.816;2024-03-07T01:08:07;54.84;50.08;62.33;;
74470;Laerm;62918;55.706;37.816;2024-03-07T01:08:38;54.48;49.10;61.50;;
74470;Laerm;62918;55.706;37.816;2024-03-07T01:09:09;59.45;47.97;68.83;;
74470;Laerm;62918;55.706;37.816;2024-03-07T01:09:44;56.81;46.57;67.34;;
74470;Laerm;62918;55.706;37.816;2024-03-07T01:10:15;58.85;50.34;64.56;;
74470;Laerm;62918;55.706;37.816;2024-03-07T01:10:45;52.75;48.49;56.84;;
74470;Laerm;62918;55.706;37.816;2024-03-07T01:11:16;52.25;46.95;57.07;;
74470;Laerm;62918;55.706;37.816;2024-03-07T01:11:46;52.97;46.88;58.57;;
74470;Laerm;62918;55.706;37.816;2024-03-07T01:12:18;55.20;47.73;62.61;;
74470;Laerm;62918;55.706;37.816;2024-03-07T01:12:50;56.70;48.84;63.64;;
74470;Laerm;62918;55.706;37.816;2024-03-07T01:13:21;61.10;54.95;65.16;;
74470;Laerm;62918;55.706;37.816;2024-03-07T01:13:52;55.55;48.37;62.49;;
74470;Laerm;62918;55.706;37.816;2024-03-07T01:14:23;55.48;49.79;61.09;;
74470;Laerm;62918;55.706;37.816;2024-03-07T01:14:53;53.20;49.01;62.47;;
74470;Laerm;62918;55.706;37.816;2024-03-07T01:15:24;53.36;48.98;59.08;;
74470;Laerm;62918;55.706;37.816;2024-03-07T01:15:54;57.28;52.69;63.21;;
74470;Laerm;62918;55.706;37.816;2024-03-07T01:16:25;56.09;51.76;60.64;;
74470;Laerm;62918;55.706;37.816;2024-03-07T01:16:56;54.91;51.19;58.10;;
74470;Laerm;62918;55.706;37.816;2024-03-07T01:17:26;56.56;50.46;65.59;;
74470;Laerm;62918;55.706;37.816;2024-03-07T01:17:57;58.25;48.46;65.21;;
74470;Laerm;62918;55.706;37.816;2024-03-07T01:18:27;50.12;46.08;55.11;;
74470;Laerm;62918;55.706;37.816;2024-03-07T01:18:58;50.65;46.56;60.56;;
74470;Laerm;62918;55.706;37.816;2024-03-07T01:19:28;52.11;45.80;60.47;;
74470;Laerm;62918;55.706;37.816;2024-03-07T01:19:59;57.91;45.71;65.13;;
74470;Laerm;62918;55.706;37.816;2024-03-07T01:20:29;51.87;45.41;58.41;;
74470;Laerm;62918;55.706;37.816;2024-03-07T01:21:01;53.03;46.23;63.17;;
74470;Laerm;62918;55.706;37.816;2024-03-07T01:21:33;50.23;45.73;55.29;;
74470;Laerm;62918;55.706;37.816;2024-03-07T01:22:03;52.60;45.69;60.18;;
74470;Laerm;62918;55.706;37.816;2024-03-07T01:22:34;56.33;49.77;64.32;;
74470;Laerm;62918;55.706;37.816;2024-03-07T01:23:05;57.13;49.94;66.82;;
74470;Laerm;62918;55.706;37.816;2024-03-07T01:23:37;58.36;51.94;64.34;;
74470;Laerm;62918;55.706;37.816;2024-03-07T01:24:08;59.34;50.05;65.60;;
74470;Laerm;62918;55.706;37.816;2024-03-07T01:24:39;52.54;48.25;62.26;;
74470;Laerm;62918;55.706;37.816;2024-03-07T01:25:10;53.77;46.56;61.80;;
74470;Laerm;62918;55.706;37.816;2024-03-07T01:25:42;51.12;46.66;58.43;;
74470;Laerm;62918;55.706;37.816;2024-03-07T01:26:13;51.62;46.56;58.97;;
74470;Laerm;62918;55.706;37.816;2024-03-07T01:26:44;58.97;49.18;64.99;;
74470;Laerm;62918;55.706;37.816;2024-03-07T01:27:15;52.43;48.56;57.50;;
74470;Laerm;62918;55.706;37.816;2024-03-07T01:27:46;52.61;46.41;58.00;;
74470;Laerm;62918;55.706;37.816;2024-03-07T01:28:17;59.03;51.67;67.08;;
74470;Laerm;62918;55.706;37.816;2024-03-07T01:28:48;52.90;48.29;61.82;;
74470;Laerm;62918;55.706;37.816;2024-03-07T01:29:19;50.79;46.95;55.05;;
74470;Laerm;62918;55.706;37.816;2024-03-07T01:29:51;51.18;45.88;55.30;;
74470;Laerm;62918;55.706;37.816;2024-03-07T01:30:21;50.88;46.52;54.19;;
74470;Laerm;62918;55.706;37.816;2024-03-07T01:30:53;60.04;50.69;66.81;;
74470;Laerm;62918;55.706;37.816;2024-03-07T01:31:24;62.17;56.74;66.02;;
74470;Laerm;62918;55.706;37.816;2024-03-07T01:31:55;60.89;51.29;77.59;;
74470;Laerm;62918;55.706;37.816;2024-03-07T01:32:25;55.50;50.02;59.45;;
74470;Laerm;62918;55.706;37.816;2024-03-07T01:32:56;50.52;45.63;54.86;;
74470;Laerm;62918;55.706;37.816;2024-03-07T01:33:27;50.93;47.52;54.88;;
74470;Laerm;62918;55.706;37.816;2024-03-07T01:33:58;51.95;47.47;57.98;;
74470;Laerm;62918;55.706;37.816;2024-03-07T01:34:28;55.39;47.19;59.47;;
74470;Laerm;62918;55.706;37.816;2024-03-07T01:34:59;49.42;45.00;53.59;;
74470;Laerm;62918;55.706;37.816;2024-03-07T01:35:30;53.79;47.03;61.88;;
74470;Laerm;62918;55.706;37.816;2024-03-07T01:36:00;59.46;52.93;63.02;;
74470;Laerm;62918;55.706;37.816;2024-03-07T01:36:31;62.61;56.72;68.64;;
74470;Laerm;62918;55.706;37.816;2024-03-07T01:37:02;59.23;52.82;69.33;;
74470;Laerm;62918;55.706;37.816;2024-03-07T01:37:33;58.98;51.54;75.51;;
74470;Laerm;62918;55.706;37.816;2024-03-07T01:38:03;54.29;50.84;59.71;;
74470;Laerm;62918;55.706;37.816;2024-03-07T01:38:33;53.94;50.99;61.04;;
74470;Laerm;62918;55.706;37.816;2024-03-07T01:39:04;55.42;50.54;75.69;;
74470;Laerm;62918;55.706;37.816;2024-03-07T01:39:35;53.93;50.52;64.60;;
74470;Laerm;62918;55.706;37.816;2024-03-07T01:40:06;52.40;47.32;56.54;;
74470;Laerm;62918;55.706;37.816;2024-03-07T01:40:37;56.00;47.11;63.22;;
74470;Laerm;62918;55.706;37.816;2024-03-07T01:41:07;53.09;47.81;59.25;;
74470;Laerm;62918;55.706;37.816;2024-03-07T01:41:39;63.81;49.77;70.76;;
74470;Laerm;62918;55.706;37.816;2024-03-07T01:42:10;54.59;49.02;59.23;;
74470;Laerm;62918;55.706;37.816;2024-03-07T01:42:41;64.61;55.11;71.10;;
74470;Laerm;62918;55.706;37.816;2024-03-07T01:43:11;59.27;52.76;64.55;;
74470;Laerm;62918;55.706;37.816;2024-03-07T01:43:42;56.50;49.72;62.84;;
74470;Laerm;62918;55.706;37.816;2024-03-07T01:44:13;54.49;49.55;59.79;;
74470;Laerm;62918;55.706;37.816;2024-03-07T01:44:44;57.08;52.35;61.95;;
74470;Laerm;62918;55.706;37.816;2024-03-07T01:45:15;54.56;49.71;59.34;;
74470;Laerm;62918;55.706;37.816;2024-03-07T01:45:46;59.67;53.08;65.11;;
74470;Laerm;62918;55.706;37.816;2024-03-07T01:46:17;58.13;50.99;63.99;;
74470;Laerm;62918;55.706;37.816;2024-03-07T01:46:49;57.27;50.39;67.28;;
74470;Laerm;62918;55.706;37.816;2024-03-07T01:47:21;55.38;48.91;63.61;;
74470;Laerm;62918;55.706;37.816;2024-03-07T01:47:51;58.44;51.78;65.44;;
74470;Laerm;62918;55.706;37.816;2024-03-07T01:48:26;56.29;49.74;60.61;;
74470;Laerm;62918;55.706;37.816;2024-03-07T01:48:57;56.38;49.45;60.25;;
74470;Laerm;62918;55.706;37.816;2024-03-07T01:49:32;54.32;48.12;59.89;;
74470;Laerm;62918;55.706;37.816;2024-03-07T01:50:03;53.46;46.51;59.18;;
74470;Laerm;62918;55.706;37.816;2024-03-07T01:50:35;56.47;47.34;63.64;;
74470;Laerm;62918;55.706;37.816;2024-03-07T01:51:08;54.15;46.10;59.36;;
74470;Laerm;62918;55.706;37.816;2024-03-07T01:51:39;51.23;45.26;57.37;;
74470;Laerm;62918;55.706;37.816;2024-03-07T01:52:10;54.66;49.33;60.20;;
74470;Laerm;62918;55.706;37.816;2024-03-07T01:52:42;55.25;50.13;61.55;;
74470;Laerm;62918;55.706;37.816;2024-03-07T01:53:13;54.67;49.85;60.93;;
74470;Laerm;62918;55.706;37.816;2024-03-07T01:53:44;59.69;50.23;66.29;;
74470;Laerm;62918;55.706;37.816;2024-03-07T01:54:16;62.80;52.83;72.09;;
74470;Laerm;62918;55.706;37.816;2024-03-07T01:54:46;59.51;53.30;66.57;;
74470;Laerm;62918;55.706;37.816;2024-03-07T01:55:17;60.75;55.82;65.56;;
74470;Laerm;62918;55.706;37.816;2024-03-07T01:55:49;56.49;51.35;60.32;;
74470;Laerm;62918;55.706;37.816;2024-03-07T01:56:20;61.32;48.84;68.75;;
74470;Laerm;62918;55.706;37.816;2024-03-07T01:56:51;53.18;48.57;61.71;;
74470;Laerm;62918;55.706;37.816;2024-03-07T01:57:22;56.55;48.22;65.38;;
74470;Laerm;62918;55.706;37.816;2024-03-07T01:57:56;58.40;48.39;66.13;;
74470;Laerm;62918;55.706;37.816;2024-03-07T01:58:30;52.39;46.94;57.41;;
74470;Laerm;62918;55.706;37.816;2024-03-07T01:59:03;53.51;47.78;60.25;;
74470;Laerm;62918;55.706;37.816;2024-03-07T01:59:35;50.42;45.61;55.51;;
74470;Laerm;62918;55.706;37.816;2024-03-07T02:00:06;50.52;46.47;56.10;;
74470;Laerm;62918;55.706;37.816;2024-03-07T02:00:38;54.32;47.57;59.54;;
74470;Laerm;62918;55.706;37.816;2024-03-07T02:01:08;55.18;49.53;59.62;;
74470;Laerm;62918;55.706;37.816;2024-03-07T02:01:39;51.89;46.72;57.26;;
74470;Laerm;62918;55.706;37.816;2024-03-07T02:02:10;55.29;50.11;60.82;;
74470;Laerm;62918;55.706;37.816;2024-03-07T02:02:41;56.38;46.52;62.47;;
74470;Laerm;62918;55.706;37.816;2024-03-07T02:03:16;51.80;45.03;58.59;;
74470;Laerm;62918;55.706;37.816;2024-03-07T02:03:47;50.23;45.32;54.09;;
74470;Laerm;62918;55.706;37.816;2024-03-07T02:04:17;54.22;47.15;65.41;;
74470;Laerm;62918;55.706;37.816;2024-03-07T02:04:48;59.25;50.28;66.66;;
74470;Laerm;62918;55.706;37.816;2024-03-07T02:05:22;54.05;46.47;73.44;;
74470;Laerm;62918;55.706;37.816;2024-03-07T02:05:53;51.08;46.82;55.67;;
74470;Laerm;62918;55.706;37.816;2024-03-07T02:06:24;56.78;47.88;65.44;;
74470;Laerm;62918;55.706;37.816;2024-03-07T02:06:56;59.33;50.50;66.91;;
74470;Laerm;62918;55.706;37.816;2024-03-07T02:07:26;57.80;47.10;68.46;;
74470;Laerm;62918;55.706;37.816;2024-03-07T02:07:57;57.76;51.50;65.37;;
74470;Laerm;62918;55.706;37.816;2024-03-07T02:08:28;55.23;50.95;60.55;;
74470;Laerm;62918;55.706;37.816;2024-03-07T02:08:59;58.64;47.76;65.29;;
74470;Laerm;62918;55.706;37.816;2024-03-07T02:09:30;50.85;47.45;53.66;;
74470;Laerm;62918;55.706;37.816;2024-03-07T02:10:02;53.48;47.84;68.60;;
74470;Laerm;62918;55.706;37.816;2024-03-07T02:10:34;53.02;45.28;67.13;;
74470;Laerm;62918;55.706;37.816;2024-03-07T02:11:05;49.39;45.41;55.55;;
74470;Laerm;62918;55.706;37.816;2024-03-07T02:11:35;51.97;46.92;57.57;;
74470;Laerm;62918;55.706;37.816;2024-03-07T02:12:06;49.57;45.63;57.75;;
74470;Laerm;62918;55.706;37.816;2024-03-07T02:12:37;55.27;46.36;62.30;;
74470;Laerm;62918;55.706;37.816;2024-03-07T02:13:08;53.51;46.07;59.27;;
74470;Laerm;62918;55.706;37.816;2024-03-07T02:13:39;54.44;48.66;61.17;;
74470;Laerm;62918;55.706;37.816;2024-03-07T02:14:09;51.30;46.01;67.32;;
74470;Laerm;62918;55.706;37.816;2024-03-07T02:14:40;51.27;45.32;56.66;;
74470;Laerm;62918;55.706;37.816;2024-03-07T02:15:10;53.67;46.40;62.57;;
74470;Laerm;62918;55.706;37.816;2024-03-07T02:15:44;55.81;49.73;65.63;;
74470;Laerm;62918;55.706;37.816;2024-03-07T02:16:14;58.93;46.67;66.76;;
74470;Laerm;62918;55.706;37.816;2024-03-07T02:16:45;58.30;50.22;65.07;;
74470;Laerm;62918;55.706;37.816;2024-03-07T02:17:36;54.00;48.76;59.82;;
74470;Laerm;62918;55.706;37.816;2024-03-07T02:18:07;59.45;51.29;67.18;;
74470;Laerm;62918;55.706;37.816;2024-03-07T02:18:39;54.39;46.53;62.35;;
74470;Laerm;62918;55.706;37.816;2024-03-07T02:19:14;59.25;49.86;65.14;;
74470;Laerm;62918;55.706;37.816;2024-03-07T02:19:45;51.40;46.87;57.75;;
74470;Laerm;62918;55.706;37.816;2024-03-07T02:20:17;50.33;46.70;56.21;;
74470;Laerm;62918;55.706;37.816;2024-03-07T02:20:47;64.64;53.72;72.01;;
74470;Laerm;62918;55.706;37.816;2024-03-07T02:21:18;56.19;47.89;65.29;;
74470;Laerm;62918;55.706;37.816;2024-03-07T02:21:49;63.73;55.87;67.93;;
74470;Laerm;62918;55.706;37.816;2024-03-07T02:22:19;59.73;52.32;64.84;;
74470;Laerm;62918;55.706;37.816;2024-03-07T02:22:50;60.78;53.58;66.07;;
74470;Laerm;62918;55.706;37.816;2024-03-07T02:23:23;54.91;46.86;63.32;;
74470;Laerm;62918;55.706;37.816;2024-03-07T02:23:53;51.18;45.25;58.42;;
74470;Laerm;62918;55.706;37.816;2024-03-07T02:24:24;55.48;47.05;61.75;;
74470;Laerm;62918;55.706;37.816;2024-03-07T02:24:55;58.75;48.79;66.73;;
74470;Laerm;62918;55.706;37.816;2024-03-07T02:25:25;52.15;45.39;56.57;;
74470;Laerm;62918;55.706;37.816;2024-03-07T02:25:57;48.12;43.53;53.80;;
74470;Laerm;62918;55.706;37.816;2024-03-07T02:26:27;56.48;45.65;65.53;;
74470;Laerm;62918;55.706;37.816;2024-03-07T02:26:58;49.13;44.81;58.34;;
74470;Laerm;62918;55.706;37.816;2024-03-07T02:27:29;54.23;45.42;59.38;;
74470;Laerm;62918;55.706;37.816;2024-03-07T02:28:00;51.33;46.96;55.97;;
74470;Laerm;62918;55.706;37.816;2024-03-07T02:28:30;52.58;46.27;60.56;;
74470;Laerm;62918;55.706;37.816;2024-03-07T02:29:01;61.85;52.25;70.29;;
74470;Laerm;62918;55.706;37.816;2024-03-07T02:29:32;55.28;49.43;62.24;;
74470;Laerm;62918;55.706;37.816;2024-03-07T02:30:04;48.57;44.01;56.86;;
74470;Laerm;62918;55.706;37.816;2024-03-07T02:30:39;51.94;45.97;57.93;;
74470;Laerm;62918;55.706;37.816;2024-03-07T02:31:10;64.15;55.01;75.42;;
74470;Laerm;62918;55.706;37.816;2024-03-07T02:31:40;60.72;49.90;70.72;;
74470;Laerm;62918;55.706;37.816;2024-03-07T02:32:11;57.40;51.51;61.52;;
74470;Laerm;62918;55.706;37.816;2024-03-07T02:32:42;57.18;50.42;61.57;;
74470;Laerm;62918;55.706;37.816;2024-03-07T02:33:13;56.49;45.22;61.50;;
74470;Laerm;62918;55.706;37.816;2024-03-07T02:33:43;55.44;44.31;60.58;;
74470;Laerm;62918;55.706;37.816;2024-03-07T02:34:14;63.51;52.30;69.52;;
74470;Laerm;62918;55.706;37.816;2024-03-07T02:34:44;63.09;52.23;68.59;;
74470;Laerm;62918;55.706;37.816;2024-03-07T02:35:17;61.84;51.95;67.44;;
74470;Laerm;62918;55.706;37.816;2024-03-07T02:35:48;62.51;54.81;68.01;;
74470;Laerm;62918;55.706;37.816;2024-03-07T02:36:19;56.22;50.80;61.41;;
74470;Laerm;62918;55.706;37.816;2024-03-07T02:36:50;55.61;45.91;64.94;;
74470;Laerm;62918;55.706;37.816;2024-03-07T02:37:22;59.95;53.99;65.04;;
74470;Laerm;62918;55.706;37.816;2024-03-07T02:37:53;57.75;50.54;65.10;;
74470;Laerm;62918;55.706;37.816;2024-03-07T02:38:23;54.51;47.50;61.35;;
74470;Laerm;62918;55.706;37.816;2024-03-07T02:38:54;61.41;57.21;64.29;;
74470;Laerm;62918;55.706;37.816;2024-03-07T02:39:25;57.88;51.69;62.33;;
74470;Laerm;62918;55.706;37.816;2024-03-07T02:39:55;58.87;52.18;64.41;;
74470;Laerm;62918;55.706;37.816;2024-03-07T02:40:26;65.91;50.28;72.93;;
74470;Laerm;62918;55.706;37.816;2024-03-07T02:40:56;57.46;47.23;63.87;;
74470;Laerm;62918;55.706;37.816;2024-03-07T02:41:28;50.50;44.62;57.66;;
74470;Laerm;62918;55.706;37.816;2024-03-07T02:41:59;59.01;50.97;64.00;;
74470;Laerm;62918;55.706;37.816;2024-03-07T02:42:29;59.67;54.55;67.20;;
74470;Laerm;62918;55.706;37.816;2024-03-07T02:43:00;62.68;54.05;71.30;;
74470;Laerm;62918;55.706;37.816;2024-03-07T02:43:31;59.30;47.63;68.65;;
74470;Laerm;62918;55.706;37.816;2024-03-07T02:44:02;49.79;47.39;56.35;;
74470;Laerm;62918;55.706;37.816;2024-03-07T02:44:34;55.76;48.43;69.88;;
74470;Laerm;62918;55.706;37.816;2024-03-07T02:45:05;57.81;51.85;65.32;;
74470;Laerm;62918;55.706;37.816;2024-03-07T02:45:36;62.75;54.76;67.37;;
74470;Laerm;62918;55.706;37.816;2024-03-07T02:46:06;62.27;56.09;66.96;;
74470;Laerm;62918;55.706;37.816;2024-03-07T02:46:37;60.59;54.65;66.99;;
74470;Laerm;62918;55.706;37.816;2024-03-07T02:47:09;54.04;48.04;64.50;;
74470;Laerm;62918;55.706;37.816;2024-03-07T02:47:39;60.54;50.32;66.95;;
74470;Laerm;62918;55.706;37.816;2024-03-07T02:48:11;57.19;46.36;66.19;;
74470;Laerm;62918;55.706;37.816;2024-03-07T02:48:42;59.08;52.40;70.78;;
74470;Laerm;62918;55.706;37.816;2024-03-07T02:49:13;57.27;49.12;65.67;;
74470;Laerm;62918;55.706;37.816;2024-03-07T02:49:44;63.24;56.16;69.17;;
74470;Laerm;62918;55.706;37.816;2024-03-07T02:50:15;58.46;49.90;63.95;;
74470;Laerm;62918;55.706;37.816;2024-03-07T02:50:46;61.94;48.88;68.27;;
74470;Laerm;62918;55.706;37.816;2024-03-07T02:51:16;59.19;50.18;66.59;;
74470;Laerm;62918;55.706;37.816;2024-03-07T02:51:47;56.07;47.51;69.10;;